sensor_id;sensor_type;location;lat;lon;timestamp;P1;durP1;ratioP1;P2;durP2;ratioP2
11173;SDS011;5643;50.856;12.088;2022-08-04T00:01:34;1.70;;;1.60;;
11173;SDS011;5643;50.856;12.088;2022-08-04T00:04:07;3.33;;;1.60;;
11173;SDS011;5643;50.856;12.088;2022-08-04T00:06:51;1.40;;;1.40;;
11173;SDS011;5643;50.856;12.088;2022-08-04T00:09:28;2.63;;;1.80;;
11173;SDS011;5643;50.856;12.088;2022-08-04T00:12:08;1.77;;;1.67;;
11173;SDS011;5643;50.856;12.088;2022-08-04T00:14:45;1.70;;;1.60;;
11173;SDS011;5643;50.856;12.088;2022-08-04T00:17:19;3.00;;;2.00;;
11173;SDS011;5643;50.856;12.088;2022-08-04T00:19:52;2.27;;;2.07;;
11173;SDS011;5643;50.856;12.088;2022-08-04T00:22:29;2.40;;;2.20;;
11173;SDS011;5643;50.856;12.088;2022-08-04T00:24:59;2.33;;;2.13;;
11173;SDS011;5643;50.856;12.088;2022-08-04T00:27:32;2.27;;;2.07;;
11173;SDS011;5643;50.856;12.088;2022-08-04T00:30:03;2.50;;;2.30;;
11173;SDS011;5643;50.856;12.088;2022-08-04T00:32:32;2.70;;;2.17;;
11173;SDS011;5643;50.856;12.088;2022-08-04T00:35:00;2.17;;;1.90;;
11173;SDS011;5643;50.856;12.088;2022-08-04T00:37:28;2.10;;;2.00;;
11173;SDS011;5643;50.856;12.088;2022-08-04T00:39:59;2.00;;;1.90;;
11173;SDS011;5643;50.856;12.088;2022-08-04T00:42:43;2.20;;;2.00;;
11173;SDS011;5643;50.856;12.088;2022-08-04T00:48:31;2.20;;;2.00;;
11173;SDS011;5643;50.856;12.088;2022-08-04T00:51:15;2.17;;;2.07;;
11173;SDS011;5643;50.856;12.088;2022-08-04T00:53:57;2.27;;;1.83;;
11173;SDS011;5643;50.856;12.088;2022-08-04T00:59:43;1.97;;;1.87;;
11173;SDS011;5643;50.856;12.088;2022-08-04T01:02:30;1.93;;;1.70;;
11173;SDS011;5643;50.856;12.088;2022-08-04T01:05:04;2.03;;;1.70;;
11173;SDS011;5643;50.856;12.088;2022-08-04T01:07:46;1.50;;;1.40;;
11173;SDS011;5643;50.856;12.088;2022-08-04T01:10:23;1.60;;;1.50;;
11173;SDS011;5643;50.856;12.088;2022-08-04T01:13:19;1.57;;;1.47;;
11173;SDS011;5643;50.856;12.088;2022-08-04T01:16:01;1.77;;;1.67;;
11173;SDS011;5643;50.856;12.088;2022-08-04T01:18:54;1.90;;;1.80;;
11173;SDS011;5643;50.856;12.088;2022-08-04T01:24:50;1.93;;;1.83;;
11173;SDS011;5643;50.856;12.088;2022-08-04T01:27:36;1.97;;;1.80;;
11173;SDS011;5643;50.856;12.088;2022-08-04T01:30:34;2.00;;;1.90;;
11173;SDS011;5643;50.856;12.088;2022-08-04T01:33:11;1.90;;;1.80;;
11173;SDS011;5643;50.856;12.088;2022-08-04T01:35:51;1.90;;;1.70;;
11173;SDS011;5643;50.856;12.088;2022-08-04T01:38:41;2.00;;;1.90;;
11173;SDS011;5643;50.856;12.088;2022-08-04T01:41:30;2.07;;;1.90;;
11173;SDS011;5643;50.856;12.088;2022-08-04T01:44:18;1.90;;;1.80;;
11173;SDS011;5643;50.856;12.088;2022-08-04T01:47:08;1.80;;;1.70;;
11173;SDS011;5643;50.856;12.088;2022-08-04T01:49:58;2.13;;;1.93;;
11173;SDS011;5643;50.856;12.088;2022-08-04T01:52:51;2.10;;;1.90;;
11173;SDS011;5643;50.856;12.088;2022-08-04T01:55:20;2.37;;;2.17;;
11173;SDS011;5643;50.856;12.088;2022-08-04T01:57:49;2.10;;;2.00;;
11173;SDS011;5643;50.856;12.088;2022-08-04T02:00:19;2.00;;;1.90;;
11173;SDS011;5643;50.856;12.088;2022-08-04T02:02:53;2.03;;;1.93;;
11173;SDS011;5643;50.856;12.088;2022-08-04T02:05:22;1.90;;;1.80;;
11173;SDS011;5643;50.856;12.088;2022-08-04T02:07:57;1.80;;;1.70;;
11173;SDS011;5643;50.856;12.088;2022-08-04T02:10:45;1.97;;;1.87;;
11173;SDS011;5643;50.856;12.088;2022-08-04T02:13:26;1.90;;;1.80;;
11173;SDS011;5643;50.856;12.088;2022-08-04T02:16:01;2.00;;;1.87;;
11173;SDS011;5643;50.856;12.088;2022-08-04T02:18:33;1.83;;;1.73;;
11173;SDS011;5643;50.856;12.088;2022-08-04T02:21:10;1.87;;;1.77;;
11173;SDS011;5643;50.856;12.088;2022-08-04T02:23:40;1.90;;;1.80;;
11173;SDS011;5643;50.856;12.088;2022-08-04T02:26:14;2.00;;;1.90;;
11173;SDS011;5643;50.856;12.088;2022-08-04T02:28:46;2.00;;;1.90;;
11173;SDS011;5643;50.856;12.088;2022-08-04T02:31:22;2.00;;;1.90;;
11173;SDS011;5643;50.856;12.088;2022-08-04T02:34:00;2.00;;;1.90;;
11173;SDS011;5643;50.856;12.088;2022-08-04T02:36:35;2.20;;;2.00;;
11173;SDS011;5643;50.856;12.088;2022-08-04T02:39:04;1.93;;;1.83;;
11173;SDS011;5643;50.856;12.088;2022-08-04T02:41:32;3.13;;;1.93;;
11173;SDS011;5643;50.856;12.088;2022-08-04T02:44:05;1.90;;;1.80;;
11173;SDS011;5643;50.856;12.088;2022-08-04T02:46:35;2.60;;;2.40;;
11173;SDS011;5643;50.856;12.088;2022-08-04T02:49:06;2.17;;;2.07;;
11173;SDS011;5643;50.856;12.088;2022-08-04T02:51:35;2.03;;;1.93;;
11173;SDS011;5643;50.856;12.088;2022-08-04T02:54:06;2.03;;;1.90;;
11173;SDS011;5643;50.856;12.088;2022-08-04T02:56:35;2.20;;;2.00;;
11173;SDS011;5643;50.856;12.088;2022-08-04T02:59:04;2.07;;;1.90;;
11173;SDS011;5643;50.856;12.088;2022-08-04T03:01:33;1.80;;;1.70;;
11173;SDS011;5643;50.856;12.088;2022-08-04T03:04:05;1.60;;;1.50;;
11173;SDS011;5643;50.856;12.088;2022-08-04T03:09:56;1.80;;;1.70;;
11173;SDS011;5643;50.856;12.088;2022-08-04T03:15:53;2.00;;;1.90;;
11173;SDS011;5643;50.856;12.088;2022-08-04T03:18:36;1.77;;;1.67;;
11173;SDS011;5643;50.856;12.088;2022-08-04T03:31:10;1.90;;;1.80;;
11173;SDS011;5643;50.856;12.088;2022-08-04T03:34:14;1.80;;;1.70;;
11173;SDS011;5643;50.856;12.088;2022-08-04T03:37:27;2.10;;;2.00;;
11173;SDS011;5643;50.856;12.088;2022-08-04T03:49:21;1.77;;;1.67;;
11173;SDS011;5643;50.856;12.088;2022-08-04T03:52:30;2.00;;;1.90;;
11173;SDS011;5643;50.856;12.088;2022-08-04T03:58:58;1.90;;;1.80;;
11173;SDS011;5643;50.856;12.088;2022-08-04T04:01:50;1.83;;;1.73;;
11173;SDS011;5643;50.856;12.088;2022-08-04T04:04:49;1.80;;;1.70;;
11173;SDS011;5643;50.856;12.088;2022-08-04T04:08:01;2.50;;;2.20;;
11173;SDS011;5643;50.856;12.088;2022-08-04T04:14:37;2.90;;;2.70;;
11173;SDS011;5643;50.856;12.088;2022-08-04T04:17:29;2.30;;;2.13;;
11173;SDS011;5643;50.856;12.088;2022-08-04T04:20:23;2.20;;;2.10;;
11173;SDS011;5643;50.856;12.088;2022-08-04T04:23:08;2.27;;;2.10;;
11173;SDS011;5643;50.856;12.088;2022-08-04T04:25:48;2.10;;;2.00;;
11173;SDS011;5643;50.856;12.088;2022-08-04T04:28:45;2.10;;;2.00;;
11173;SDS011;5643;50.856;12.088;2022-08-04T04:31:33;1.90;;;1.80;;
11173;SDS011;5643;50.856;12.088;2022-08-04T04:34:15;2.00;;;1.90;;
11173;SDS011;5643;50.856;12.088;2022-08-04T04:37:00;2.17;;;1.80;;
11173;SDS011;5643;50.856;12.088;2022-08-04T04:39:42;1.80;;;1.70;;
11173;SDS011;5643;50.856;12.088;2022-08-04T04:42:37;2.07;;;1.97;;
11173;SDS011;5643;50.856;12.088;2022-08-04T04:45:21;2.53;;;2.00;;
11173;SDS011;5643;50.856;12.088;2022-08-04T04:47:55;2.10;;;2.00;;
11173;SDS011;5643;50.856;12.088;2022-08-04T04:50:31;2.17;;;2.07;;
11173;SDS011;5643;50.856;12.088;2022-08-04T04:53:09;2.27;;;2.07;;
11173;SDS011;5643;50.856;12.088;2022-08-04T04:55:46;2.10;;;2.00;;
11173;SDS011;5643;50.856;12.088;2022-08-04T04:58:19;2.20;;;2.10;;
11173;SDS011;5643;50.856;12.088;2022-08-04T05:01:02;2.00;;;1.90;;
11173;SDS011;5643;50.856;12.088;2022-08-04T05:03:51;2.20;;;2.10;;
11173;SDS011;5643;50.856;12.088;2022-08-04T05:06:44;2.53;;;2.27;;
11173;SDS011;5643;50.856;12.088;2022-08-04T05:09:30;2.03;;;1.93;;
11173;SDS011;5643;50.856;12.088;2022-08-04T05:12:29;2.50;;;2.40;;
11173;SDS011;5643;50.856;12.088;2022-08-04T05:15:09;2.70;;;2.50;;
11173;SDS011;5643;50.856;12.088;2022-08-04T05:17:39;3.10;;;2.90;;
11173;SDS011;5643;50.856;12.088;2022-08-04T05:20:09;2.80;;;2.60;;
11173;SDS011;5643;50.856;12.088;2022-08-04T05:22:44;2.80;;;2.60;;
11173;SDS011;5643;50.856;12.088;2022-08-04T05:25:19;3.23;;;3.03;;
11173;SDS011;5643;50.856;12.088;2022-08-04T05:27:54;3.00;;;2.80;;
11173;SDS011;5643;50.856;12.088;2022-08-04T05:30:29;3.33;;;3.03;;
11173;SDS011;5643;50.856;12.088;2022-08-04T05:33:02;3.10;;;2.90;;
11173;SDS011;5643;50.856;12.088;2022-08-04T05:35:33;4.03;;;3.23;;
11173;SDS011;5643;50.856;12.088;2022-08-04T05:38:06;3.20;;;3.00;;
11173;SDS011;5643;50.856;12.088;2022-08-04T05:40:37;3.70;;;2.83;;
11173;SDS011;5643;50.856;12.088;2022-08-04T05:43:08;2.90;;;2.70;;
11173;SDS011;5643;50.856;12.088;2022-08-04T05:45:37;3.90;;;2.90;;
11173;SDS011;5643;50.856;12.088;2022-08-04T05:48:06;3.20;;;2.90;;
11173;SDS011;5643;50.856;12.088;2022-08-04T05:50:34;2.80;;;2.60;;
11173;SDS011;5643;50.856;12.088;2022-08-04T05:53:03;2.60;;;2.40;;
11173;SDS011;5643;50.856;12.088;2022-08-04T05:55:32;3.73;;;2.73;;
11173;SDS011;5643;50.856;12.088;2022-08-04T05:58:00;2.60;;;2.40;;
11173;SDS011;5643;50.856;12.088;2022-08-04T06:00:30;2.53;;;2.33;;
11173;SDS011;5643;50.856;12.088;2022-08-04T06:03:01;2.70;;;2.50;;
11173;SDS011;5643;50.856;12.088;2022-08-04T06:05:30;3.17;;;2.10;;
11173;SDS011;5643;50.856;12.088;2022-08-04T06:07:59;2.10;;;2.00;;
11173;SDS011;5643;50.856;12.088;2022-08-04T06:10:26;1.80;;;1.70;;
11173;SDS011;5643;50.856;12.088;2022-08-04T06:12:59;1.60;;;1.50;;
11173;SDS011;5643;50.856;12.088;2022-08-04T06:15:31;2.50;;;2.30;;
11173;SDS011;5643;50.856;12.088;2022-08-04T06:18:03;2.15;;;2.05;;
11173;SDS011;5643;50.856;12.088;2022-08-04T06:20:34;1.98;;;1.88;;
11173;SDS011;5643;50.856;12.088;2022-08-04T06:23:05;1.90;;;1.80;;
11173;SDS011;5643;50.856;12.088;2022-08-04T06:25:37;2.33;;;2.13;;
11173;SDS011;5643;50.856;12.088;2022-08-04T06:28:09;2.55;;;2.35;;
11173;SDS011;5643;50.856;12.088;2022-08-04T06:30:40;3.28;;;2.13;;
11173;SDS011;5643;50.856;12.088;2022-08-04T06:33:12;2.60;;;2.20;;
11173;SDS011;5643;50.856;12.088;2022-08-04T06:35:49;2.45;;;2.25;;
11173;SDS011;5643;50.856;12.088;2022-08-04T06:38:20;1.90;;;1.80;;
11173;SDS011;5643;50.856;12.088;2022-08-04T06:40:48;2.00;;;1.80;;
11173;SDS011;5643;50.856;12.088;2022-08-04T06:43:16;2.85;;;1.90;;
11173;SDS011;5643;50.856;12.088;2022-08-04T06:45:46;2.40;;;2.03;;
11173;SDS011;5643;50.856;12.088;2022-08-04T06:48:15;1.98;;;1.88;;
11173;SDS011;5643;50.856;12.088;2022-08-04T06:50:47;2.30;;;1.63;;
11173;SDS011;5643;50.856;12.088;2022-08-04T06:53:16;1.80;;;1.70;;
11173;SDS011;5643;50.856;12.088;2022-08-04T06:55:45;2.17;;;2.00;;
11173;SDS011;5643;50.856;12.088;2022-08-04T06:58:13;2.47;;;1.90;;
11173;SDS011;5643;50.856;12.088;2022-08-04T07:00:43;2.10;;;1.90;;
11173;SDS011;5643;50.856;12.088;2022-08-04T07:03:14;1.85;;;1.50;;
11173;SDS011;5643;50.856;12.088;2022-08-04T07:05:45;1.80;;;1.70;;
11173;SDS011;5643;50.856;12.088;2022-08-04T07:08:13;1.85;;;1.70;;
11173;SDS011;5643;50.856;12.088;2022-08-04T07:10:42;1.35;;;1.25;;
11173;SDS011;5643;50.856;12.088;2022-08-04T07:13:11;1.60;;;1.50;;
11173;SDS011;5643;50.856;12.088;2022-08-04T07:15:40;1.40;;;1.30;;
11173;SDS011;5643;50.856;12.088;2022-08-04T07:18:10;1.40;;;1.30;;
11173;SDS011;5643;50.856;12.088;2022-08-04T07:20:40;1.30;;;1.20;;
11173;SDS011;5643;50.856;12.088;2022-08-04T07:23:08;1.20;;;1.20;;
11173;SDS011;5643;50.856;12.088;2022-08-04T07:25:42;1.10;;;1.10;;
11173;SDS011;5643;50.856;12.088;2022-08-04T07:28:10;0.90;;;0.90;;
11173;SDS011;5643;50.856;12.088;2022-08-04T07:30:39;0.80;;;0.80;;
11173;SDS011;5643;50.856;12.088;2022-08-04T07:33:10;0.82;;;0.82;;
11173;SDS011;5643;50.856;12.088;2022-08-04T07:35:37;0.85;;;0.85;;
11173;SDS011;5643;50.856;12.088;2022-08-04T07:38:08;0.80;;;0.80;;
11173;SDS011;5643;50.856;12.088;2022-08-04T07:40:36;0.60;;;0.60;;
11173;SDS011;5643;50.856;12.088;2022-08-04T07:43:05;0.70;;;0.70;;
11173;SDS011;5643;50.856;12.088;2022-08-04T07:45:34;0.50;;;0.50;;
11173;SDS011;5643;50.856;12.088;2022-08-04T07:48:03;0.60;;;0.60;;
11173;SDS011;5643;50.856;12.088;2022-08-04T07:50:32;0.52;;;0.52;;
11173;SDS011;5643;50.856;12.088;2022-08-04T07:53:01;0.50;;;0.50;;
11173;SDS011;5643;50.856;12.088;2022-08-04T07:55:29;0.50;;;0.50;;
11173;SDS011;5643;50.856;12.088;2022-08-04T07:57:58;0.40;;;0.40;;
11173;SDS011;5643;50.856;12.088;2022-08-04T08:00:27;0.52;;;0.52;;
11173;SDS011;5643;50.856;12.088;2022-08-04T08:02:55;0.50;;;0.50;;
11173;SDS011;5643;50.856;12.088;2022-08-04T08:05:23;0.50;;;0.50;;
11173;SDS011;5643;50.856;12.088;2022-08-04T08:07:51;0.40;;;0.40;;
11173;SDS011;5643;50.856;12.088;2022-08-04T08:10:22;0.30;;;0.30;;
11173;SDS011;5643;50.856;12.088;2022-08-04T08:12:50;0.30;;;0.30;;
11173;SDS011;5643;50.856;12.088;2022-08-04T08:15:18;0.32;;;0.32;;
11173;SDS011;5643;50.856;12.088;2022-08-04T08:17:46;0.43;;;0.43;;
11173;SDS011;5643;50.856;12.088;2022-08-04T08:20:14;0.30;;;0.30;;
11173;SDS011;5643;50.856;12.088;2022-08-04T08:22:42;0.40;;;0.40;;
11173;SDS011;5643;50.856;12.088;2022-08-04T08:25:10;0.40;;;0.40;;
11173;SDS011;5643;50.856;12.088;2022-08-04T08:27:40;0.50;;;0.50;;
11173;SDS011;5643;50.856;12.088;2022-08-04T08:30:08;0.40;;;0.40;;
11173;SDS011;5643;50.856;12.088;2022-08-04T08:32:36;0.30;;;0.30;;
11173;SDS011;5643;50.856;12.088;2022-08-04T08:35:04;0.40;;;0.40;;
11173;SDS011;5643;50.856;12.088;2022-08-04T08:37:33;0.40;;;0.40;;
11173;SDS011;5643;50.856;12.088;2022-08-04T08:40:21;0.30;;;0.30;;
11173;SDS011;5643;50.856;12.088;2022-08-04T08:43:07;0.30;;;0.30;;
11173;SDS011;5643;50.856;12.088;2022-08-04T08:45:53;0.40;;;0.40;;
11173;SDS011;5643;50.856;12.088;2022-08-04T08:54:43;0.60;;;0.60;;
11173;SDS011;5643;50.856;12.088;2022-08-04T08:57:25;0.82;;;0.70;;
11173;SDS011;5643;50.856;12.088;2022-08-04T09:00:15;0.40;;;0.40;;
11173;SDS011;5643;50.856;12.088;2022-08-04T09:03:03;0.80;;;0.68;;
11173;SDS011;5643;50.856;12.088;2022-08-04T09:05:50;0.50;;;0.50;;
11173;SDS011;5643;50.856;12.088;2022-08-04T09:08:40;1.00;;;0.40;;
11173;SDS011;5643;50.856;12.088;2022-08-04T09:11:35;0.40;;;0.40;;
11173;SDS011;5643;50.856;12.088;2022-08-04T09:14:09;0.50;;;0.50;;
11173;SDS011;5643;50.856;12.088;2022-08-04T09:16:50;0.50;;;0.40;;
11173;SDS011;5643;50.856;12.088;2022-08-04T09:19:26;1.05;;;0.40;;
11173;SDS011;5643;50.856;12.088;2022-08-04T09:22:00;0.60;;;0.60;;
11173;SDS011;5643;50.856;12.088;2022-08-04T09:24:40;0.40;;;0.40;;
11173;SDS011;5643;50.856;12.088;2022-08-04T09:27:17;0.73;;;0.40;;
11173;SDS011;5643;50.856;12.088;2022-08-04T09:29:46;0.40;;;0.40;;
11173;SDS011;5643;50.856;12.088;2022-08-04T09:32:26;0.40;;;0.40;;
11173;SDS011;5643;50.856;12.088;2022-08-04T09:35:05;0.82;;;0.65;;
11173;SDS011;5643;50.856;12.088;2022-08-04T09:37:45;0.60;;;0.60;;
11173;SDS011;5643;50.856;12.088;2022-08-04T09:40:22;0.60;;;0.60;;
11173;SDS011;5643;50.856;12.088;2022-08-04T09:42:56;0.57;;;0.57;;
11173;SDS011;5643;50.856;12.088;2022-08-04T09:45:35;0.77;;;0.77;;
11173;SDS011;5643;50.856;12.088;2022-08-04T09:48:09;0.50;;;0.50;;
11173;SDS011;5643;50.856;12.088;2022-08-04T09:50:42;0.50;;;0.50;;
11173;SDS011;5643;50.856;12.088;2022-08-04T09:53:24;0.50;;;0.50;;
11173;SDS011;5643;50.856;12.088;2022-08-04T09:56:05;0.47;;;0.47;;
11173;SDS011;5643;50.856;12.088;2022-08-04T09:58:48;0.75;;;0.65;;
11173;SDS011;5643;50.856;12.088;2022-08-04T10:01:20;0.60;;;0.60;;
11173;SDS011;5643;50.856;12.088;2022-08-04T10:03:53;0.40;;;0.40;;
11173;SDS011;5643;50.856;12.088;2022-08-04T10:09:42;0.50;;;0.50;;
11173;SDS011;5643;50.856;12.088;2022-08-04T10:12:23;1.20;;;0.73;;
11173;SDS011;5643;50.856;12.088;2022-08-04T10:14:59;1.52;;;0.70;;
11173;SDS011;5643;50.856;12.088;2022-08-04T10:17:41;0.80;;;0.80;;
11173;SDS011;5643;50.856;12.088;2022-08-04T10:20:27;0.68;;;0.68;;
11173;SDS011;5643;50.856;12.088;2022-08-04T10:23:10;0.43;;;0.43;;
11173;SDS011;5643;50.856;12.088;2022-08-04T10:25:48;0.50;;;0.50;;
11173;SDS011;5643;50.856;12.088;2022-08-04T10:28:28;0.40;;;0.40;;
11173;SDS011;5643;50.856;12.088;2022-08-04T10:31:02;0.50;;;0.50;;
11173;SDS011;5643;50.856;12.088;2022-08-04T10:33:36;0.65;;;0.65;;
11173;SDS011;5643;50.856;12.088;2022-08-04T10:36:13;0.75;;;0.75;;
11173;SDS011;5643;50.856;12.088;2022-08-04T10:38:49;0.60;;;0.60;;
11173;SDS011;5643;50.856;12.088;2022-08-04T10:41:26;0.50;;;0.50;;
11173;SDS011;5643;50.856;12.088;2022-08-04T10:44:04;0.55;;;0.55;;
11173;SDS011;5643;50.856;12.088;2022-08-04T10:46:49;0.50;;;0.50;;
11173;SDS011;5643;50.856;12.088;2022-08-04T10:49:21;0.40;;;0.40;;
11173;SDS011;5643;50.856;12.088;2022-08-04T10:51:58;0.57;;;0.57;;
11173;SDS011;5643;50.856;12.088;2022-08-04T10:54:36;0.60;;;0.60;;
11173;SDS011;5643;50.856;12.088;2022-08-04T10:57:13;0.50;;;0.50;;
11173;SDS011;5643;50.856;12.088;2022-08-04T10:59:48;0.50;;;0.50;;
11173;SDS011;5643;50.856;12.088;2022-08-04T11:02:27;0.50;;;0.50;;
11173;SDS011;5643;50.856;12.088;2022-08-04T11:05:04;0.50;;;0.50;;
11173;SDS011;5643;50.856;12.088;2022-08-04T11:07:46;1.38;;;0.60;;
11173;SDS011;5643;50.856;12.088;2022-08-04T11:10:17;0.77;;;0.77;;
11173;SDS011;5643;50.856;12.088;2022-08-04T11:12:51;0.63;;;0.63;;
11173;SDS011;5643;50.856;12.088;2022-08-04T11:15:24;0.50;;;0.50;;
11173;SDS011;5643;50.856;12.088;2022-08-04T11:18:01;0.57;;;0.57;;
11173;SDS011;5643;50.856;12.088;2022-08-04T11:20:35;0.93;;;0.65;;
11173;SDS011;5643;50.856;12.088;2022-08-04T11:23:10;1.17;;;1.13;;
11173;SDS011;5643;50.856;12.088;2022-08-04T11:25:44;1.67;;;1.20;;
11173;SDS011;5643;50.856;12.088;2022-08-04T11:28:22;0.90;;;0.90;;
11173;SDS011;5643;50.856;12.088;2022-08-04T11:31:02;0.90;;;0.90;;
11173;SDS011;5643;50.856;12.088;2022-08-04T11:33:34;0.63;;;0.63;;
11173;SDS011;5643;50.856;12.088;2022-08-04T11:36:09;0.60;;;0.60;;
11173;SDS011;5643;50.856;12.088;2022-08-04T11:38:45;0.60;;;0.60;;
11173;SDS011;5643;50.856;12.088;2022-08-04T11:41:18;0.60;;;0.60;;
11173;SDS011;5643;50.856;12.088;2022-08-04T11:43:50;1.45;;;0.75;;
11173;SDS011;5643;50.856;12.088;2022-08-04T11:46:23;0.55;;;0.55;;
11173;SDS011;5643;50.856;12.088;2022-08-04T11:49:00;1.33;;;0.90;;
11173;SDS011;5643;50.856;12.088;2022-08-04T11:51:31;1.20;;;1.10;;
11173;SDS011;5643;50.856;12.088;2022-08-04T11:54:02;0.90;;;0.90;;
11173;SDS011;5643;50.856;12.088;2022-08-04T11:56:31;0.65;;;0.65;;
11173;SDS011;5643;50.856;12.088;2022-08-04T11:58:58;0.60;;;0.60;;
11173;SDS011;5643;50.856;12.088;2022-08-04T12:01:34;0.80;;;0.80;;
11173;SDS011;5643;50.856;12.088;2022-08-04T12:04:09;0.70;;;0.70;;
11173;SDS011;5643;50.856;12.088;2022-08-04T12:06:46;0.65;;;0.65;;
11173;SDS011;5643;50.856;12.088;2022-08-04T12:09:26;0.60;;;0.60;;
11173;SDS011;5643;50.856;12.088;2022-08-04T12:12:06;0.88;;;0.88;;
11173;SDS011;5643;50.856;12.088;2022-08-04T12:14:42;0.82;;;0.82;;
11173;SDS011;5643;50.856;12.088;2022-08-04T12:17:21;0.70;;;0.70;;
11173;SDS011;5643;50.856;12.088;2022-08-04T12:19:54;0.70;;;0.70;;
11173;SDS011;5643;50.856;12.088;2022-08-04T12:22:27;0.98;;;0.98;;
11173;SDS011;5643;50.856;12.088;2022-08-04T12:25:02;0.70;;;0.70;;
11173;SDS011;5643;50.856;12.088;2022-08-04T12:27:33;1.20;;;0.70;;
11173;SDS011;5643;50.856;12.088;2022-08-04T12:30:08;0.70;;;0.70;;
11173;SDS011;5643;50.856;12.088;2022-08-04T12:32:38;0.70;;;0.70;;
11173;SDS011;5643;50.856;12.088;2022-08-04T12:35:12;0.70;;;0.70;;
11173;SDS011;5643;50.856;12.088;2022-08-04T12:37:47;0.60;;;0.60;;
11173;SDS011;5643;50.856;12.088;2022-08-04T12:40:30;0.85;;;0.85;;
11173;SDS011;5643;50.856;12.088;2022-08-04T12:43:05;0.70;;;0.70;;
11173;SDS011;5643;50.856;12.088;2022-08-04T12:45:40;0.80;;;0.80;;
11173;SDS011;5643;50.856;12.088;2022-08-04T12:48:10;0.70;;;0.70;;
11173;SDS011;5643;50.856;12.088;2022-08-04T12:50:39;0.70;;;0.70;;
11173;SDS011;5643;50.856;12.088;2022-08-04T12:53:12;0.60;;;0.60;;
11173;SDS011;5643;50.856;12.088;2022-08-04T12:55:47;0.90;;;0.90;;
11173;SDS011;5643;50.856;12.088;2022-08-04T12:58:20;1.55;;;0.80;;
11173;SDS011;5643;50.856;12.088;2022-08-04T13:00:53;0.60;;;0.60;;
11173;SDS011;5643;50.856;12.088;2022-08-04T13:03:26;0.80;;;0.80;;
11173;SDS011;5643;50.856;12.088;2022-08-04T13:05:56;0.73;;;0.73;;
11173;SDS011;5643;50.856;12.088;2022-08-04T13:08:24;0.70;;;0.70;;
11173;SDS011;5643;50.856;12.088;2022-08-04T13:10:55;0.70;;;0.70;;
11173;SDS011;5643;50.856;12.088;2022-08-04T13:13:25;0.73;;;0.70;;
11173;SDS011;5643;50.856;12.088;2022-08-04T13:15:55;0.60;;;0.60;;
11173;SDS011;5643;50.856;12.088;2022-08-04T13:18:25;0.90;;;0.90;;
11173;SDS011;5643;50.856;12.088;2022-08-04T13:20:55;0.90;;;0.90;;
11173;SDS011;5643;50.856;12.088;2022-08-04T13:23:34;0.73;;;0.73;;
11173;SDS011;5643;50.856;12.088;2022-08-04T13:26:05;0.68;;;0.68;;
11173;SDS011;5643;50.856;12.088;2022-08-04T13:28:33;0.82;;;0.70;;
11173;SDS011;5643;50.856;12.088;2022-08-04T13:31:06;0.70;;;0.70;;
11173;SDS011;5643;50.856;12.088;2022-08-04T13:33:38;0.52;;;0.52;;
11173;SDS011;5643;50.856;12.088;2022-08-04T13:36:08;0.70;;;0.70;;
11173;SDS011;5643;50.856;12.088;2022-08-04T13:38:37;0.80;;;0.80;;
11173;SDS011;5643;50.856;12.088;2022-08-04T13:41:13;0.70;;;0.70;;
11173;SDS011;5643;50.856;12.088;2022-08-04T13:43:44;0.70;;;0.70;;
11173;SDS011;5643;50.856;12.088;2022-08-04T13:46:16;0.60;;;0.60;;
11173;SDS011;5643;50.856;12.088;2022-08-04T13:48:46;0.70;;;0.70;;
11173;SDS011;5643;50.856;12.088;2022-08-04T13:51:16;0.63;;;0.63;;
11173;SDS011;5643;50.856;12.088;2022-08-04T13:53:45;0.90;;;0.90;;
11173;SDS011;5643;50.856;12.088;2022-08-04T13:56:23;1.08;;;1.00;;
11173;SDS011;5643;50.856;12.088;2022-08-04T13:58:56;0.80;;;0.80;;
11173;SDS011;5643;50.856;12.088;2022-08-04T14:01:28;0.80;;;0.80;;
11173;SDS011;5643;50.856;12.088;2022-08-04T14:04:01;0.90;;;0.90;;
11173;SDS011;5643;50.856;12.088;2022-08-04T14:06:32;0.77;;;0.77;;
11173;SDS011;5643;50.856;12.088;2022-08-04T14:09:02;0.90;;;0.90;;
11173;SDS011;5643;50.856;12.088;2022-08-04T14:14:35;0.88;;;0.88;;
11173;SDS011;5643;50.856;12.088;2022-08-04T14:17:13;1.17;;;1.10;;
11173;SDS011;5643;50.856;12.088;2022-08-04T14:19:52;0.93;;;0.93;;
11173;SDS011;5643;50.856;12.088;2022-08-04T14:22:27;0.90;;;0.90;;
11173;SDS011;5643;50.856;12.088;2022-08-04T14:25:00;0.88;;;0.88;;
11173;SDS011;5643;50.856;12.088;2022-08-04T14:27:40;0.93;;;0.90;;
11173;SDS011;5643;50.856;12.088;2022-08-04T14:30:19;1.20;;;1.10;;
11173;SDS011;5643;50.856;12.088;2022-08-04T14:33:00;0.70;;;0.70;;
11173;SDS011;5643;50.856;12.088;2022-08-04T14:35:28;0.90;;;0.90;;
11173;SDS011;5643;50.856;12.088;2022-08-04T14:37:57;0.80;;;0.80;;
11173;SDS011;5643;50.856;12.088;2022-08-04T14:40:28;0.70;;;0.70;;
11173;SDS011;5643;50.856;12.088;2022-08-04T14:42:58;0.60;;;0.60;;
11173;SDS011;5643;50.856;12.088;2022-08-04T14:45:28;0.90;;;0.90;;
11173;SDS011;5643;50.856;12.088;2022-08-04T14:47:57;1.20;;;1.10;;
11173;SDS011;5643;50.856;12.088;2022-08-04T14:50:32;0.80;;;0.80;;
11173;SDS011;5643;50.856;12.088;2022-08-04T14:53:02;0.90;;;0.90;;
11173;SDS011;5643;50.856;12.088;2022-08-04T14:55:31;0.88;;;0.88;;
11173;SDS011;5643;50.856;12.088;2022-08-04T14:58:02;0.90;;;0.90;;
11173;SDS011;5643;50.856;12.088;2022-08-04T15:00:34;0.90;;;0.90;;
11173;SDS011;5643;50.856;12.088;2022-08-04T15:03:04;0.73;;;0.70;;
11173;SDS011;5643;50.856;12.088;2022-08-04T15:05:33;0.93;;;0.93;;
11173;SDS011;5643;50.856;12.088;2022-08-04T15:08:01;0.90;;;0.90;;
11173;SDS011;5643;50.856;12.088;2022-08-04T15:10:29;0.80;;;0.80;;
11173;SDS011;5643;50.856;12.088;2022-08-04T15:12:57;0.70;;;0.70;;
11173;SDS011;5643;50.856;12.088;2022-08-04T15:15:26;0.90;;;0.90;;
11173;SDS011;5643;50.856;12.088;2022-08-04T15:17:55;0.68;;;0.68;;
11173;SDS011;5643;50.856;12.088;2022-08-04T15:20:23;0.88;;;0.88;;
11173;SDS011;5643;50.856;12.088;2022-08-04T15:22:50;1.02;;;1.02;;
11173;SDS011;5643;50.856;12.088;2022-08-04T15:25:18;1.02;;;1.02;;
11173;SDS011;5643;50.856;12.088;2022-08-04T15:27:46;1.00;;;1.00;;
11173;SDS011;5643;50.856;12.088;2022-08-04T15:30:16;0.70;;;0.70;;
11173;SDS011;5643;50.856;12.088;2022-08-04T15:32:48;0.70;;;0.70;;
11173;SDS011;5643;50.856;12.088;2022-08-04T15:35:18;0.73;;;0.73;;
11173;SDS011;5643;50.856;12.088;2022-08-04T15:37:51;0.68;;;0.68;;
11173;SDS011;5643;50.856;12.088;2022-08-04T15:40:27;0.80;;;0.80;;
11173;SDS011;5643;50.856;12.088;2022-08-04T15:45:50;0.73;;;0.73;;
11173;SDS011;5643;50.856;12.088;2022-08-04T15:48:23;0.60;;;0.60;;
11173;SDS011;5643;50.856;12.088;2022-08-04T15:51:02;0.95;;;0.95;;
11173;SDS011;5643;50.856;12.088;2022-08-04T15:56:48;0.65;;;0.65;;
11173;SDS011;5643;50.856;12.088;2022-08-04T16:02:36;0.60;;;0.60;;
11173;SDS011;5643;50.856;12.088;2022-08-04T16:08:08;0.80;;;0.80;;
11173;SDS011;5643;50.856;12.088;2022-08-04T16:10:40;0.70;;;0.70;;
11173;SDS011;5643;50.856;12.088;2022-08-04T16:13:10;0.50;;;0.50;;
11173;SDS011;5643;50.856;12.088;2022-08-04T16:15:43;0.70;;;0.70;;
11173;SDS011;5643;50.856;12.088;2022-08-04T16:18:35;0.60;;;0.60;;
11173;SDS011;5643;50.856;12.088;2022-08-04T16:21:06;0.52;;;0.52;;
11173;SDS011;5643;50.856;12.088;2022-08-04T16:26:41;0.60;;;0.60;;
11173;SDS011;5643;50.856;12.088;2022-08-04T16:29:27;0.55;;;0.55;;
11173;SDS011;5643;50.856;12.088;2022-08-04T16:32:09;0.70;;;0.70;;
11173;SDS011;5643;50.856;12.088;2022-08-04T16:34:39;1.05;;;0.80;;
11173;SDS011;5643;50.856;12.088;2022-08-04T16:37:10;0.60;;;0.60;;
11173;SDS011;5643;50.856;12.088;2022-08-04T16:39:39;0.60;;;0.60;;
11173;SDS011;5643;50.856;12.088;2022-08-04T16:45:01;0.70;;;0.70;;
11173;SDS011;5643;50.856;12.088;2022-08-04T16:47:59;0.60;;;0.60;;
11173;SDS011;5643;50.856;12.088;2022-08-04T16:50:28;0.70;;;0.70;;